Terminal Aerodrome Forecast
Issued by NWS Riverton, WY

Home | Current Version | Previous Version | Text Only | Print | Product List | Glossary On
Versions: 1 2 3 4 5 6 7 8 9 10 11 12 13
000
FTUS45 KRIW 271700
TAFRIW
TAF
KRIW 271725Z 2718/2818 VRB05KT P6SM -SHRA SCT030 OVC050
      TEMPO 2719/2721 5SM SHRA BKN030
     FM272100 09006KT P6SM -SHRA SCT040 BKN060
     FM280000 29006KT P6SM VCSH SCT060 BKN080
     FM280300 30006KT P6SM BKN100
     FM280600 30006KT P6SM FEW100
     FM281600 04006KT P6SM FEW090=

USA.gov is the U.S. government's official web portal to all federal, state and local government web resources and services.